Weather reports worldwide

Advertisment
Concordia Sagittaria, Italy (16107): temperature & dewpoint: 03.07.2020 03:00:00 - 09.07.2020 03:00:00 (CEST)Concordia Sagittaria, Italy (16107): wind speed: 03.07.2020 03:00:00 - 09.07.2020 03:00:00 (CEST)Concordia Sagittaria, Italy (16107): wind direction: 03.07.2020 03:00:00 - 09.07.2020 03:00:00 (CEST)Concordia Sagittaria, Italy (16107): reduced air pressure: 03.07.2020 03:00:00 - 09.07.2020 03:00:00 (CEST)Concordia Sagittaria, Italy (16107): precipitation: 03.07.2020 03:00:00 - 09.07.2020 03:00:00 (CEST)
Date & Time tt [°C] td [°C] ff [km/h] ff [kn] dd ppp [hPa] rr [mm]
09.07.2020 03:00:00 - - - - - - -
09.07.2020 02:00:00 17,0 15,3 0 0 N 1021,8 0,0
09.07.2020 01:00:00 17,6 15,5 2 1 S 1021,7 -
09.07.2020 00:00:00 17,9 15,3 4 2 W 1021,7 -
08.07.2020 23:00:00 18,6 15,2 0 0 N 1021,5 -
08.07.2020 22:00:00 19,7 14,4 2 1 SSE 1021,1 -
08.07.2020 21:00:00 22,2 15,0 4 2 SE 1020,6 -
08.07.2020 20:00:00 24,7 15,3 8 4 S 1020,4 0,0
08.07.2020 19:00:00 25,8 15,1 8 4 S 1020,5 -
08.07.2020 18:00:00 26,2 15,2 11 6 S 1020,7 -
08.07.2020 17:00:00 26,4 15,7 15 8 SSE 1021,2 -
08.07.2020 16:00:00 27,3 15,6 2 1 W 1021,4 -
08.07.2020 15:00:00 26,9 15,2 8 4 ENE 1021,9 -
08.07.2020 14:00:00 25,7 14,4 4 2 NE 1022,4 0,0
08.07.2020 13:00:00 25,4 14,5 2 1 W 1022,6 -
08.07.2020 12:00:00 24,6 13,1 8 4 WNW 1022,8 -
08.07.2020 11:00:00 24,0 15,1 11 6 NE 1022,8 -
08.07.2020 10:00:00 22,3 14,8 9 5 N 1023,0 -
08.07.2020 09:00:00 21,1 15,3 5 3 N 1022,8 -
08.07.2020 08:00:00 19,0 15,4 5 3 N 1022,8 0,0
08.07.2020 07:00:00 17,1 15,0 8 4 N 1022,4 -
08.07.2020 06:00:00 15,1 13,4 8 4 N 1022,4 -
08.07.2020 05:00:00 15,5 13,3 8 4 N 1022,7 -
08.07.2020 04:00:00 15,8 13,4 8 4 N 1022,6 -
08.07.2020 03:00:00 16,1 12,9 5 3 N 1022,8 -
08.07.2020 02:00:00 16,7 13,2 2 1 N 1022,7 0,0
08.07.2020 01:00:00 17,2 12,8 8 4 NE 1022,7 -
08.07.2020 00:00:00 18,0 13,4 8 4 ENE 1022,2 -
07.07.2020 23:00:00 17,7 12,9 5 3 ENE 1022,0 -
07.07.2020 22:00:00 18,5 10,8 0 0 N 1021,6 -
07.07.2020 21:00:00 21,0 10,1 0 0 N 1020,9 -
07.07.2020 20:00:00 24,5 12,7 2 1 ENE 1020,7 0,0
07.07.2020 19:00:00 25,1 11,3 5 3 SSE 1020,7 -
07.07.2020 18:00:00 25,3 12,1 9 5 SE 1020,7 -
07.07.2020 17:00:00 25,6 10,2 11 6 E 1020,7 -
07.07.2020 16:00:00 25,4 10,8 9 5 NE 1020,8 -
07.07.2020 15:00:00 25,4 12,2 11 6 E 1021,2 -
07.07.2020 14:00:00 25,0 11,9 4 2 ENE 1021,3 0,0
07.07.2020 13:00:00 24,7 11,9 13 7 ESE 1021,5 -
07.07.2020 12:00:00 24,5 12,4 9 5 E 1021,4 -
07.07.2020 11:00:00 23,8 13,3 11 6 NE 1021,3 -
07.07.2020 10:00:00 22,6 13,6 15 8 ENE 1021,2 -
07.07.2020 09:00:00 20,7 14,0 16 9 NE 1020,9 -
07.07.2020 08:00:00 18,9 14,3 13 7 ENE 1020,4 0,0
07.07.2020 07:00:00 16,7 14,1 13 7 ENE 1019,6 -
07.07.2020 06:00:00 16,1 13,5 18 10 NE 1018,9 -
07.07.2020 05:00:00 16,4 14,7 28 15 ENE 1017,7 -
07.07.2020 04:00:00 17,0 15,3 28 15 NE 1016,7 -
07.07.2020 03:00:00 17,5 15,8 28 15 ENE 1015,0 -
07.07.2020 02:00:00 18,2 16,5 26 14 N 1015,1 0,0
07.07.2020 01:00:00 21,5 19,2 26 14 N 1013,9 -
07.07.2020 00:00:00 22,1 19,0 21 11 NNW 1012,8 -
06.07.2020 23:00:00 24,9 18,8 16 9 NNW 1011,2 -
06.07.2020 22:00:00 25,1 17,5 5 3 SE 1010,3 -
06.07.2020 21:00:00 26,5 17,2 5 3 S 1010,2 -
06.07.2020 20:00:00 29,7 17,5 9 5 S 1010,5 0,0
06.07.2020 19:00:00 31,0 18,0 15 8 SSW 1010,1 -
06.07.2020 18:00:00 32,0 17,5 8 4 S 1010,5 -
06.07.2020 17:00:00 32,5 16,3 5 3 SW 1011,2 -
06.07.2020 16:00:00 32,1 16,8 4 2 SW 1012,1 -
06.07.2020 15:00:00 32,4 17,5 0 0 N 1012,9 -
06.07.2020 14:00:00 32,0 18,6 0 0 N 1013,7 0,0
06.07.2020 13:00:00 30,8 17,1 4 2 ENE 1014,3 -
06.07.2020 12:00:00 30,0 19,6 2 1 N 1014,8 -
06.07.2020 11:00:00 28,7 20,6 5 3 N 1015,1 -
06.07.2020 10:00:00 27,3 20,3 9 5 NNE 1015,4 -
06.07.2020 09:00:00 25,3 20,7 8 4 N 1015,7 -
06.07.2020 08:00:00 22,8 20,1 8 4 N 1015,8 0,0
06.07.2020 07:00:00 20,7 18,9 9 5 N 1016,1 -
06.07.2020 06:00:00 19,2 17,5 8 4 N 1016,5 -
06.07.2020 05:00:00 19,2 17,5 5 3 N 1016,7 -
06.07.2020 04:00:00 19,0 17,3 4 2 NW 1017,0 -
06.07.2020 03:00:00 19,3 17,6 0 0 N 1017,2 -
06.07.2020 02:00:00 19,4 17,7 0 0 N 1017,7 0,0
06.07.2020 01:00:00 19,9 18,1 0 0 N 1017,8 -
06.07.2020 00:00:00 20,4 17,3 0 0 N 1017,9 -
05.07.2020 23:00:00 21,5 17,6 2 1 E 1018,0 -
05.07.2020 22:00:00 22,8 16,7 2 1 WSW 1017,9 -
05.07.2020 21:00:00 26,1 16,6 4 2 W 1017,6 -
05.07.2020 20:00:00 29,4 17,2 4 2 W 1017,7 0,0
05.07.2020 19:00:00 29,8 15,8 4 2 WNW 1018,0 -
05.07.2020 18:00:00 30,2 16,9 9 5 SE 1018,4 -
05.07.2020 17:00:00 30,3 18,0 5 3 SSW 1019,1 -
05.07.2020 16:00:00 30,0 17,4 5 3 W 1019,8 -
05.07.2020 15:00:00 29,5 17,9 2 1 NNE 1020,3 -
05.07.2020 14:00:00 28,7 17,2 4 2 ENE 1020,9 0,0
05.07.2020 13:00:00 28,8 17,0 4 2 ESE 1021,4 -
05.07.2020 12:00:00 27,9 16,1 2 1 SW 1021,8 -
05.07.2020 11:00:00 26,8 16,7 5 3 E 1022,2 -
05.07.2020 10:00:00 25,5 17,9 11 6 N 1022,3 -
05.07.2020 09:00:00 23,6 18,8 8 4 NNW 1022,3 -
05.07.2020 08:00:00 21,5 18,0 8 4 NNW 1022,1 0,0
05.07.2020 07:00:00 19,2 17,5 9 5 N 1022,3 -
05.07.2020 06:00:00 17,7 16,0 9 5 N 1022,2 -
05.07.2020 05:00:00 17,6 15,9 8 4 N 1021,8 -
05.07.2020 04:00:00 18,4 16,5 5 3 N 1021,5 -
05.07.2020 03:00:00 18,6 16,0 4 2 E 1021,3 -
05.07.2020 02:00:00 18,3 16,4 4 2 ENE 1021,3 0,0
05.07.2020 01:00:00 18,6 16,5 9 5 NE 1021,4 -
05.07.2020 00:00:00 19,1 16,1 2 1 NNW 1021,4 -
04.07.2020 23:00:00 20,3 15,6 0 0 N 1021,2 -
04.07.2020 22:00:00 21,3 15,1 4 2 S 1020,9 -
04.07.2020 21:00:00 24,1 15,0 4 2 SSE 1020,5 -
04.07.2020 20:00:00 26,3 15,0 8 4 SSE 1019,9 0,0
04.07.2020 19:00:00 28,4 14,9 8 4 S 1019,5 -
04.07.2020 18:00:00 28,4 14,9 8 4 S 1019,7 -
04.07.2020 17:00:00 28,4 14,9 8 4 S 1020,0 -
04.07.2020 16:00:00 28,6 14,4 4 2 WNW 1020,5 -
04.07.2020 15:00:00 28,3 14,8 4 2 NE 1021,0 -
04.07.2020 14:00:00 27,7 15,3 4 2 ESE 1021,6 0,0
04.07.2020 13:00:00 27,4 15,0 0 0 N 1021,8 -
04.07.2020 12:00:00 26,0 15,0 4 2 N 1021,9 -
04.07.2020 11:00:00 24,5 15,6 15 8 NNE 1022,0 -
04.07.2020 10:00:00 23,6 16,3 18 10 NNE 1022,0 -
04.07.2020 09:00:00 21,9 17,4 13 7 N 1022,0 -
04.07.2020 08:00:00 19,2 16,7 9 5 NNW 1021,9 0,0
04.07.2020 07:00:00 18,6 16,9 8 4 N 1021,8 -
04.07.2020 06:00:00 17,8 16,1 4 2 WNW 1021,5 -
04.07.2020 05:00:00 18,0 16,3 8 4 N 1020,9 -
04.07.2020 04:00:00 18,4 16,7 5 3 NNW 1020,8 -
04.07.2020 03:00:00 18,5 16,8 5 3 NW 1020,9 -
04.07.2020 02:00:00 19,0 16,5 5 3 N 1020,8 0,0
04.07.2020 01:00:00 19,8 16,6 8 4 N 1020,8 -
04.07.2020 00:00:00 20,6 15,9 9 5 N 1020,7 -
03.07.2020 23:00:00 21,6 15,8 11 6 ENE 1020,2 -
03.07.2020 22:00:00 22,1 16,1 8 4 NNE 1019,8 -
03.07.2020 21:00:00 23,5 17,2 8 4 NE 1018,8 -
03.07.2020 20:00:00 25,0 16,6 9 5 E 1018,4 0,0
03.07.2020 19:00:00 25,2 16,3 13 7 E 1017,9 -
03.07.2020 18:00:00 26,1 16,6 11 6 E 1017,5 -
03.07.2020 17:00:00 27,2 17,3 22 12 NE 1017,4 -
03.07.2020 16:00:00 27,1 18,3 11 6 ENE 1017,4 -
03.07.2020 15:00:00 26,0 17,8 18 10 ENE 1017,7 -
03.07.2020 14:00:00 27,0 18,2 22 12 NNE 1017,6 0,0
03.07.2020 13:00:00 26,1 17,9 21 11 NE 1017,5 -
03.07.2020 12:00:00 26,0 17,8 15 8 NNE 1017,2 -
03.07.2020 11:00:00 25,4 19,5 24 13 NNE 1016,6 -
03.07.2020 10:00:00 22,1 19,6 11 6 NNE 1016,5 -
03.07.2020 09:00:00 22,0 18,9 15 8 NE 1016,2 -
03.07.2020 08:00:00 21,7 18,4 11 6 N 1015,5 0,0
03.07.2020 07:00:00 21,3 17,2 11 6 N 1015,0 -
03.07.2020 06:00:00 21,2 17,5 15 8 N 1014,6 -
03.07.2020 05:00:00 21,8 20,0 5 3 N 1014,3 -
03.07.2020 04:00:00 21,2 19,4 9 5 WNW 1014,4 -
03.07.2020 03:00:00 21,0 19,2 4 2 W 1014,9 -

tt = temperature
td = dewpoint
ff = wind speed
dd = wind direction
ppp = reduced air pressure
rr = precipitation

Next stations